Time;durP1;ratioP1;P1;durP2;ratioP2;P2;SDS_P1;SDS_P2;PMS_P1;PMS_P2;Temp;Humidity;BMP_temperature;BMP_pressure;BME280_temperature;BME280_humidity;BME280_pressure;Samples;Min_cycle;Max_cycle;Signal;HPM_P1;HPM_P2
2021/09/01 00:00:45;;;;;;;45.33;25.23;;;;;;;9.99;94.00;96444.88;6153500;23;20163;-78
2021/09/01 00:03:11;;;;;;;51.00;27.20;;;;;;;9.98;94.74;96449.22;6151272;23;20625;-79
2021/09/01 00:05:36;;;;;;;44.90;26.70;;;;;;;10.00;94.81;96449.09;6177164;23;20159;-78
2021/09/01 00:08:01;;;;;;;47.93;25.90;;;;;;;9.97;94.72;96442.38;6152047;23;20506;-77
2021/09/01 00:10:27;;;;;;;51.83;27.73;;;;;;;9.98;95.13;96450.97;6175505;23;20588;-78
2021/09/01 00:12:52;;;;;;;42.77;25.43;;;;;;;9.97;94.37;96451.94;6126959;23;20179;-78
2021/09/01 00:15:17;;;;;;;46.97;25.47;;;;;;;9.93;94.79;96447.00;6176610;23;20217;-77
2021/09/01 00:17:43;;;;;;;48.30;28.87;;;;;;;9.98;94.91;96448.38;6127252;23;20187;-78
2021/09/01 00:20:10;;;;;;;44.00;26.50;;;;;;;9.98;95.07;96448.38;6127094;23;20151;-78
2021/09/01 00:22:36;;;;;;;45.37;28.50;;;;;;;10.00;95.94;96451.72;6126369;23;20567;-78
2021/09/01 00:25:01;;;;;;;50.23;27.63;;;;;;;9.99;95.76;96452.66;6103200;23;20190;-78
2021/09/01 00:27:26;;;;;;;45.87;25.50;;;;;;;9.97;95.44;96444.97;6151854;23;20163;-77
2021/09/01 00:29:51;;;;;;;48.93;26.13;;;;;;;9.91;95.75;96446.28;6102938;23;20163;-79
2021/09/01 00:32:17;;;;;;;45.77;25.77;;;;;;;9.96;95.70;96442.50;6126484;23;20592;-78
2021/09/01 00:34:42;;;;;;;39.97;24.47;;;;;;;9.95;95.45;96444.28;6151659;23;20179;-78
2021/09/01 00:37:07;;;;;;;45.40;24.90;;;;;;;9.83;95.94;96446.06;6127854;23;20226;-78
2021/09/01 00:39:33;;;;;;;39.80;24.87;;;;;;;9.91;95.41;96448.91;6155055;23;20707;-79
2021/09/01 00:42:01;;;;;;;41.43;24.00;;;;;;;9.96;95.27;96445.09;6177846;23;20206;-79
2021/09/01 00:44:27;;;;;;;40.33;23.23;;;;;;;9.92;94.53;96439.34;6104747;23;20190;-78
2021/09/01 00:46:56;;;;;;;42.43;24.13;;;;;;;9.92;94.69;96445.34;6128991;23;20159;-77
2021/09/01 00:49:31;;;;;;;39.23;23.60;;;;;;;9.98;94.81;96443.19;6178294;23;20171;-77
2021/09/01 00:51:57;;;;;;;39.53;22.83;;;;;;;9.94;94.71;96443.44;6128152;23;20139;-77
2021/09/01 00:54:27;;;;;;;35.47;22.03;;;;;;;9.92;94.69;96436.75;6178094;23;20265;-78
2021/09/01 00:56:55;;;;;;;35.93;22.10;;;;;;;9.92;94.59;96439.34;6104643;23;20163;-78
2021/09/01 00:59:23;;;;;;;34.83;20.83;;;;;;;9.89;94.12;96435.22;6153258;23;20172;-79
2021/09/01 01:01:49;;;;;;;39.50;21.73;;;;;;;9.93;94.72;96440.97;6128122;23;20222;-79
2021/09/01 01:04:15;;;;;;;34.37;22.10;;;;;;;9.91;94.59;96435.91;6153351;23;20563;-77
2021/09/01 01:06:40;;;;;;;36.77;21.40;;;;;;;9.84;94.20;96442.53;6104506;23;20175;-79
2021/09/01 01:09:06;;;;;;;30.73;19.13;;;;;;;9.82;95.11;96433.22;6129233;23;20178;-79
2021/09/01 01:11:32;;;;;;;30.60;19.23;;;;;;;9.80;94.96;96440.28;6102447;23;20162;-79
2021/09/01 01:13:57;;;;;;;31.10;18.73;;;;;;;9.80;94.95;96430.72;6178095;23;20646;-78
2021/09/01 01:16:23;;;;;;;27.60;18.17;;;;;;;9.84;95.67;96434.75;6128845;23;20195;-78
2021/09/01 01:18:50;;;;;;;30.13;18.37;;;;;;;9.85;95.26;96427.78;6128908;23;20263;-78
2021/09/01 01:21:26;;;;;;;28.43;17.73;;;;;;;9.85;95.41;96432.97;6177857;23;20159;-78
2021/09/01 01:24:01;;;;;;;26.97;17.70;;;;;;;9.82;95.45;96431.47;6128684;23;20613;-78
2021/09/01 01:26:27;;;;;;;25.37;17.43;;;;;;;9.84;95.50;96431.34;6128944;23;20157;-78
2021/09/01 01:28:57;;;;;;;23.57;16.93;;;;;;;9.87;96.14;96431.91;6128451;23;20262;-79
2021/09/01 01:31:23;;;;;;;24.93;16.77;;;;;;;9.86;96.05;96432.03;6103391;23;20221;-79
2021/09/01 01:33:48;;;;;;;23.10;16.53;;;;;;;9.90;95.77;96428.25;6128711;23;20629;-79
2021/09/01 01:36:14;;;;;;;19.87;15.10;;;;;;;9.94;95.75;96433.06;6153025;23;20163;-77
2021/09/01 01:38:39;;;;;;;25.87;14.93;;;;;;;9.92;95.75;96431.56;6154602;23;20205;-79
2021/09/01 01:41:05;;;;;;;20.10;14.70;;;;;;;9.93;95.82;96434.03;6178126;23;20163;-79
2021/09/01 01:43:33;;;;;;;18.13;14.27;;;;;;;9.90;95.74;96434.28;6176968;23;20155;-77
2021/09/01 01:45:58;;;;;;;23.83;14.03;;;;;;;9.89;95.91;96432.63;6177608;23;20165;-77
2021/09/01 01:48:24;;;;;;;17.43;12.60;;;;;;;9.87;95.86;96429.31;6128449;23;20256;-79
2021/09/01 01:50:49;;;;;;;20.33;12.37;;;;;;;9.87;95.28;96429.31;6128329;23;20614;-79
2021/09/01 01:53:15;;;;;;;17.50;11.93;;;;;;;9.85;95.36;96425.19;6176952;23;20274;-78
2021/09/01 01:55:40;;;;;;;15.67;12.10;;;;;;;9.85;95.63;96427.78;6177821;23;20181;-79
2021/09/01 01:58:05;;;;;;;14.23;11.47;;;;;;;9.82;95.86;96423.69;6152681;23;20250;-79
2021/09/01 02:00:31;;;;;;;14.97;11.93;;;;;;;9.82;95.42;96425.44;6153038;23;20171;-77
2021/09/01 02:02:57;;;;;;;13.47;11.17;;;;;;;9.80;95.27;96425.53;6152325;23;20151;-78
2021/09/01 02:05:22;;;;;;;13.13;11.63;;;;;;;9.79;95.41;96421.31;6177842;23;20189;-79
2021/09/01 02:07:47;;;;;;;15.43;10.87;;;;;;;9.79;95.01;96420.47;6154221;23;20183;-79
2021/09/01 02:10:13;;;;;;;16.33;11.33;;;;;;;9.77;94.73;96420.59;6151831;23;20155;-77
2021/09/01 02:12:40;;;;;;;14.70;10.97;;;;;;;9.76;95.15;96418.97;6176636;23;20155;-78
2021/09/01 02:15:07;;;;;;;15.87;11.23;;;;;;;9.74;95.04;96426.06;6128507;23;20306;-79
2021/09/01 02:17:32;;;;;;;11.87;10.57;;;;;;;9.71;95.40;96421.09;6154856;23;20155;-79
2021/09/01 02:19:58;;;;;;;13.67;10.40;;;;;;;9.67;94.74;96424.06;6152933;23;20163;-79
2021/09/01 02:22:23;;;;;;;13.00;10.53;;;;;;;9.65;94.79;96421.59;6176816;23;20602;-78
2021/09/01 02:24:48;;;;;;;11.60;10.40;;;;;;;9.64;94.98;96425.94;6152641;23;20297;-78
2021/09/01 02:27:14;;;;;;;14.80;11.20;;;;;;;9.63;95.08;96432.09;6152939;23;20155;-79
2021/09/01 02:29:40;;;;;;;13.60;10.80;;;;;;;9.61;94.86;96425.34;6103343;23;20179;-77
2021/09/01 02:32:06;;;;;;;14.43;10.20;;;;;;;9.56;95.00;96430.09;6102880;23;20159;-78
2021/09/01 02:34:32;;;;;;;14.60;10.83;;;;;;;9.56;95.08;96432.69;6103291;23;20187;-79
2021/09/01 02:36:58;;;;;;;12.73;11.10;;;;;;;9.51;95.42;96434.78;6128116;23;20155;-80
2021/09/01 02:39:23;;;;;;;14.37;11.50;;;;;;;9.49;95.45;96427.13;6127849;23;20336;-79
2021/09/01 02:41:48;;;;;;;13.43;11.63;;;;;;;9.48;95.35;96432.44;6127544;23;20609;-76
2021/09/01 02:44:14;;;;;;;15.33;11.10;;;;;;;9.47;95.59;96431.63;6152326;23;20159;-78
2021/09/01 02:46:39;;;;;;;13.73;10.47;;;;;;;9.43;94.87;96425.03;6177403;23;20210;-78
2021/09/01 02:49:04;;;;;;;13.30;10.40;;;;;;;9.45;95.49;96430.06;6152319;23;20194;-79
2021/09/01 02:51:30;;;;;;;13.00;10.33;;;;;;;9.45;95.25;96428.31;6176692;23;20246;-78
2021/09/01 02:53:55;;;;;;;14.10;11.80;;;;;;;9.45;95.61;96430.91;6177203;23;20179;-79
2021/09/01 02:56:20;;;;;;;15.17;11.27;;;;;;;9.47;95.77;96434.22;6177013;23;20155;-79
2021/09/01 02:58:46;;;;;;;13.10;11.00;;;;;;;9.47;95.45;96436.00;6152187;23;20183;-78
2021/09/01 03:01:11;;;;;;;15.43;11.50;;;;;;;9.45;95.25;96433.50;6151587;23;20219;-79
2021/09/01 03:03:36;;;;;;;14.67;10.93;;;;;;;9.45;95.23;96441.28;6153841;23;20483;-78
2021/09/01 03:06:01;;;;;;;13.73;11.57;;;;;;;9.46;95.13;96439.53;6152167;23;20151;-79
2021/09/01 03:08:27;;;;;;;13.53;10.93;;;;;;;9.42;95.20;96440.69;6127533;23;20183;-79
2021/09/01 03:10:52;;;;;;;14.30;11.33;;;;;;;9.40;95.32;96435.63;6176113;23;20617;-79
2021/09/01 03:13:17;;;;;;;14.60;11.37;;;;;;;9.39;95.05;96435.75;6176317;23;20179;-79
2021/09/01 03:15:43;;;;;;;14.73;11.20;;;;;;;9.36;95.16;96440.25;6152657;23;20178;-78
2021/09/01 03:18:08;;;;;;;15.93;11.17;;;;;;;9.36;95.04;96436.78;6177113;23;20585;-79
2021/09/01 03:20:33;;;;;;;15.33;11.40;;;;;;;9.33;95.21;96437.88;6152124;23;20241;-78
2021/09/01 03:22:59;;;;;;;12.90;10.60;;;;;;;9.29;95.07;96433.06;6151546;23;20159;-78
2021/09/01 03:25:24;;;;;;;13.57;11.10;;;;;;;9.28;95.26;96429.63;6177129;23;20167;-78
2021/09/01 03:27:49;;;;;;;14.73;11.80;;;;;;;9.26;95.36;96428.91;6177303;23;20182;-76
2021/09/01 03:30:14;;;;;;;14.50;12.73;;;;;;;9.27;95.16;96429.72;6152283;23;20163;-79
2021/09/01 03:32:40;;;;;;;13.63;11.40;;;;;;;9.26;95.17;96431.50;6151294;23;20163;-78
2021/09/01 03:35:06;;;;;;;16.93;12.20;;;;;;;9.25;95.39;96435.03;6152187;23;20168;-78
2021/09/01 03:37:31;;;;;;;14.50;11.00;;;;;;;9.23;95.26;96439.53;6152073;23;20227;-77
2021/09/01 03:39:57;;;;;;;14.30;10.87;;;;;;;9.20;95.12;96450.13;6127649;23;20155;-79
2021/09/01 03:42:22;;;;;;;16.30;11.70;;;;;;;9.18;94.98;96444.22;6151175;23;20246;-78
2021/09/01 03:44:47;;;;;;;15.90;10.33;;;;;;;9.16;95.00;96440.94;6177259;23;20182;-78
2021/09/01 03:47:13;;;;;;;15.07;10.80;;;;;;;9.16;95.17;96442.69;6153741;23;20175;-78
2021/09/01 03:49:38;;;;;;;13.57;11.03;;;;;;;9.14;95.13;96439.41;6177020;23;20187;-77
2021/09/01 03:52:03;;;;;;;13.93;11.10;;;;;;;9.12;95.54;96441.28;6176428;23;20155;-78
2021/09/01 03:54:29;;;;;;;15.10;12.07;;;;;;;9.12;95.43;96441.28;6127608;23;20839;-78
2021/09/01 03:56:54;;;;;;;17.03;11.10;;;;;;;9.09;95.46;96439.75;6177034;23;20151;-79
2021/09/01 03:59:19;;;;;;;12.73;11.17;;;;;;;9.06;95.23;96445.16;6152427;23;20693;-78
2021/09/01 04:01:45;;;;;;;13.40;11.40;;;;;;;9.04;95.24;96442.69;6153683;23;20166;-80
2021/09/01 04:04:10;;;;;;;14.50;11.70;;;;;;;9.07;95.57;96445.03;6151972;23;20163;-78
2021/09/01 04:06:35;;;;;;;13.37;11.00;;;;;;;9.06;95.57;96440.81;6152318;23;20605;-79
2021/09/01 04:09:01;;;;;;;13.67;10.83;;;;;;;9.05;95.27;96448.69;6176994;23;20218;-79
2021/09/01 04:11:27;;;;;;;12.73;11.20;;;;;;;9.02;95.43;96454.13;6150711;23;20156;-78
2021/09/01 04:13:52;;;;;;;13.43;10.90;;;;;;;9.01;95.52;96455.88;6104993;23;20183;-79
2021/09/01 04:16:18;;;;;;;13.13;11.10;;;;;;;9.01;95.52;96458.47;6104994;23;20605;-79
2021/09/01 04:18:43;;;;;;;16.73;11.03;;;;;;;9.02;95.42;96456.72;6128833;23;20190;-78
2021/09/01 04:21:08;;;;;;;16.17;10.87;;;;;;;8.99;95.30;96459.50;6153365;23;20163;-77
2021/09/01 04:23:34;;;;;;;16.30;11.20;;;;;;;8.97;95.19;96451.88;6153192;23;20246;-78
2021/09/01 04:25:59;;;;;;;15.10;11.27;;;;;;;8.95;95.36;96451.16;6178856;23;20156;-79
2021/09/01 04:28:24;;;;;;;16.43;11.50;;;;;;;8.95;95.37;96455.53;6125090;23;20179;-78
2021/09/01 04:30:50;;;;;;;12.97;10.97;;;;;;;8.95;95.40;96452.94;6172653;23;20209;-79
2021/09/01 04:33:15;;;;;;;13.07;11.20;;;;;;;8.95;95.60;96452.94;6177005;23;20183;-80
2021/09/01 04:35:40;;;;;;;15.87;11.13;;;;;;;8.95;95.75;96458.09;6178509;23;20500;-81
2021/09/01 04:38:06;;;;;;;13.93;9.93;;;;;;;8.94;95.77;96452.09;6153470;23;20526;-80
2021/09/01 04:40:31;;;;;;;13.77;10.80;;;;;;;8.92;95.96;96455.72;6153330;23;20163;-79
2021/09/01 04:42:57;;;;;;;15.70;11.27;;;;;;;8.89;96.25;96458.56;6129243;23;20166;-85
2021/09/01 04:45:22;;;;;;;13.60;11.20;;;;;;;8.99;96.39;96452.56;6106939;23;20255;-84
2021/09/01 04:47:47;;;;;;;13.77;11.40;;;;;;;9.01;96.03;96450.72;6154021;23;20256;-82
2021/09/01 04:50:13;;;;;;;14.63;12.00;;;;;;;9.05;95.78;96457.28;6129443;23;20605;-78
2021/09/01 04:52:38;;;;;;;16.10;11.30;;;;;;;9.07;95.64;96460.59;6177125;23;20211;-79
2021/09/01 04:55:04;;;;;;;13.93;11.60;;;;;;;9.11;95.67;96452.59;6104499;23;20210;-80
2021/09/01 04:57:30;;;;;;;16.10;11.30;;;;;;;9.12;95.26;96454.25;6103347;23;20194;-79
2021/09/01 04:59:55;;;;;;;14.63;10.37;;;;;;;9.19;95.35;96458.00;6178044;23;20159;-80
2021/09/01 05:02:21;;;;;;;21.47;11.63;;;;;;;9.24;94.99;96458.47;6127857;23;20608;-78
2021/09/01 05:04:46;;;;;;;15.97;11.53;;;;;;;9.31;94.64;96460.50;6177801;23;20602;-81
2021/09/01 05:07:11;;;;;;;12.93;11.30;;;;;;;9.30;94.28;96458.84;6153158;23;20620;-81
2021/09/01 05:09:36;;;;;;;14.37;10.97;;;;;;;9.31;94.54;96450.13;6153540;23;20199;-80
2021/09/01 05:12:02;;;;;;;14.40;11.00;;;;;;;9.33;94.57;96458.59;6152550;23;20164;-79
2021/09/01 05:14:27;;;;;;;12.93;10.43;;;;;;;9.39;94.56;96462.50;6153561;23;20187;-81
2021/09/01 05:16:52;;;;;;;14.90;10.63;;;;;;;9.46;94.13;96465.47;6178151;23;20179;-79
2021/09/01 05:19:18;;;;;;;13.43;10.13;;;;;;;9.52;93.89;96467.56;6178382;23;20181;-80
2021/09/01 05:21:51;;;;;;;14.37;10.90;;;;;;;9.67;94.13;96466.38;6152802;23;20155;-80
2021/09/01 05:24:32;;;;;;;12.30;10.30;;;;;;;9.76;93.75;96463.06;6104062;23;20589;-80
2021/09/01 05:27:07;;;;;;;11.77;10.50;;;;;;;9.80;93.53;96464.47;6153200;23;20157;-80
2021/09/01 05:29:41;;;;;;;14.77;11.40;;;;;;;9.91;93.91;96472.25;6154593;23;20178;-79
2021/09/01 05:32:12;;;;;;;14.37;10.87;;;;;;;9.98;93.46;96471.75;6153719;23;20584;-81
2021/09/01 05:34:37;;;;;;;14.53;10.83;;;;;;;10.06;93.37;96467.59;6128180;23;20175;-82
2021/09/01 05:37:03;;;;;;;16.53;11.70;;;;;;;10.15;93.65;96473.81;6152959;23;20242;-79
2021/09/01 05:39:29;;;;;;;13.67;10.63;;;;;;;10.20;93.60;96477.72;6128067;23;20175;-80
2021/09/01 05:41:54;;;;;;;14.63;11.93;;;;;;;10.29;93.76;96473.59;6176989;23;20200;-81
2021/09/01 05:44:20;;;;;;;17.83;12.23;;;;;;;10.40;93.13;96483.94;6104019;23;20155;-82
2021/09/01 05:46:47;;;;;;;14.13;10.20;;;;;;;10.39;92.88;96484.06;6135744;23;20175;-81
2021/09/01 05:49:12;;;;;;;14.63;11.50;;;;;;;10.47;92.84;96479.06;6166495;23;20515;-79
2021/09/01 05:51:38;;;;;;;14.77;11.50;;;;;;;10.62;93.34;96483.03;6179492;23;20214;-79
2021/09/01 05:54:03;;;;;;;18.80;14.47;;;;;;;10.75;93.86;96486.25;6152170;23;20519;-80
2021/09/01 05:56:31;;;;;;;18.50;14.00;;;;;;;10.87;93.39;96481.84;6177284;23;20186;-79
2021/09/01 05:58:57;;;;;;;18.23;13.30;;;;;;;11.01;93.89;96484.09;6176790;23;20215;-80
2021/09/01 06:01:26;;;;;;;14.40;12.80;;;;;;;11.16;93.45;96483.78;6126970;23;20632;-80
2021/09/01 06:03:57;;;;;;;16.27;13.60;;;;;;;11.28;93.80;96487.94;6104033;23;20151;-79
2021/09/01 06:06:23;;;;;;;15.67;12.77;;;;;;;11.46;93.03;96481.19;6103395;23;20151;-82
2021/09/01 06:08:49;;;;;;;17.03;13.80;;;;;;;11.64;92.24;96487.44;6153896;23;20171;-81
2021/09/01 06:11:16;;;;;;;14.27;11.53;;;;;;;11.79;92.11;96487.09;6103775;23;20214;-80
2021/09/01 06:13:41;;;;;;;15.80;12.07;;;;;;;11.93;91.41;96491.13;6104000;23;20215;-80
2021/09/01 06:16:07;;;;;;;15.93;12.40;;;;;;;12.08;91.22;96492.38;6152538;23;20198;-82
2021/09/01 06:18:32;;;;;;;13.97;12.00;;;;;;;12.12;90.45;96484.19;6128014;23;20225;-81
2021/09/01 06:20:57;;;;;;;17.40;11.70;;;;;;;12.28;90.01;96488.03;6177607;23;20155;-80
2021/09/01 06:23:23;;;;;;;13.23;11.10;;;;;;;12.35;89.58;96494.34;6151438;23;20155;-81
2021/09/01 06:25:48;;;;;;;15.00;11.83;;;;;;;12.42;88.70;96485.03;6177610;23;20163;-80
2021/09/01 06:28:14;;;;;;;15.33;11.37;;;;;;;12.42;87.81;96496.28;6153858;23;20532;-81
2021/09/01 06:30:39;;;;;;;13.20;11.07;;;;;;;12.59;87.75;96491.38;6177368;23;20155;-81
2021/09/01 06:33:04;;;;;;;12.10;10.80;;;;;;;12.56;87.04;96492.47;6177002;23;20182;-79
2021/09/01 06:35:30;;;;;;;13.07;10.60;;;;;;;12.68;87.59;96496.56;6153654;23;20233;-80
2021/09/01 06:37:55;;;;;;;11.67;10.47;;;;;;;12.73;87.04;96494.41;6177612;23;20598;-80
2021/09/01 06:40:21;;;;;;;13.77;11.60;;;;;;;12.75;86.39;96502.88;6177481;23;20155;-80
2021/09/01 06:42:47;;;;;;;13.53;10.30;;;;;;;12.83;85.97;96493.56;6177034;23;20156;-79
2021/09/01 06:45:13;;;;;;;16.33;11.60;;;;;;;12.88;84.74;96501.78;6128248;23;20710;-81
2021/09/01 06:47:42;;;;;;;12.33;10.70;;;;;;;12.92;84.81;96493.56;6128819;23;20162;-81
2021/09/01 06:50:09;;;;;;;14.00;10.80;;;;;;;12.96;85.18;96499.31;6128060;23;20175;-81
2021/09/01 06:52:34;;;;;;;14.73;11.77;;;;;;;12.94;85.09;96507.25;6151918;23;20190;-81
2021/09/01 06:54:59;;;;;;;15.33;12.40;;;;;;;12.99;84.57;96510.28;6177476;23;20179;-81
2021/09/01 06:57:25;;;;;;;17.27;12.47;;;;;;;13.06;85.34;96510.53;6177324;23;20158;-80
2021/09/01 06:59:50;;;;;;;13.20;11.27;;;;;;;13.27;85.20;96519.06;6127492;23;20182;-80
2021/09/01 07:02:15;;;;;;;15.90;12.47;;;;;;;13.33;84.07;96510.66;6151547;23;20467;-80
2021/09/01 07:04:40;;;;;;;15.30;12.37;;;;;;;13.30;84.75;96524.00;6153510;23;20497;-79
2021/09/01 07:07:06;;;;;;;13.77;11.90;;;;;;;13.35;84.53;96520.97;6177234;23;20159;-81
2021/09/01 07:09:31;;;;;;;13.57;10.93;;;;;;;13.39;84.16;96521.50;6177944;23;20171;-81
2021/09/01 07:11:56;;;;;;;16.13;11.03;;;;;;;13.48;84.12;96521.47;6152648;23;20186;-80
2021/09/01 07:14:22;;;;;;;11.63;10.43;;;;;;;13.46;83.44;96533.84;6153810;23;20485;-81
2021/09/01 07:16:47;;;;;;;14.43;11.60;;;;;;;13.46;83.75;96528.63;6177547;23;20167;-81
2021/09/01 07:19:12;;;;;;;13.73;10.30;;;;;;;13.69;82.82;96529.09;6178152;23;20172;-82
2021/09/01 07:21:38;;;;;;;13.53;10.27;;;;;;;13.61;83.38;96534.22;6177764;23;20155;-82
2021/09/01 07:24:03;;;;;;;12.10;10.70;;;;;;;13.59;82.18;96530.91;6130052;23;20158;-81
2021/09/01 07:26:28;;;;;;;15.20;10.47;;;;;;;13.58;82.32;96527.47;6177821;23;20162;-80
2021/09/01 07:28:54;;;;;;;11.87;9.63;;;;;;;13.73;82.49;96519.19;6177899;23;20175;-80
2021/09/01 07:31:19;;;;;;;11.43;9.73;;;;;;;13.70;82.23;96522.94;6178448;23;20163;-81
2021/09/01 07:33:44;;;;;;;13.40;9.97;;;;;;;13.85;81.46;96520.66;6178832;23;20494;-80
2021/09/01 07:36:10;;;;;;;11.70;9.80;;;;;;;13.95;82.14;96528.44;6156382;23;20144;-82
2021/09/01 07:38:35;;;;;;;12.37;10.20;;;;;;;14.05;81.03;96531.84;6179710;23;20179;-80
2021/09/01 07:41:00;;;;;;;13.57;10.00;;;;;;;13.97;81.05;96531.75;6156097;23;20166;-80
2021/09/01 07:43:27;;;;;;;13.03;10.60;;;;;;;13.94;80.79;96532.84;6158405;23;20186;-80
2021/09/01 07:45:52;;;;;;;13.10;10.20;;;;;;;14.14;81.22;96536.22;6155725;23;20546;-82
2021/09/01 07:48:18;;;;;;;15.97;10.23;;;;;;;14.00;81.05;96540.09;6130963;23;20186;-81
2021/09/01 07:50:43;;;;;;;12.10;9.53;;;;;;;14.01;80.61;96538.31;6156977;23;20717;-81
2021/09/01 07:53:09;;;;;;;11.23;9.73;;;;;;;14.27;80.77;96548.91;6155816;23;20182;-82
2021/09/01 07:55:35;;;;;;;11.97;10.30;;;;;;;14.53;81.29;96555.13;6181417;23;20151;-82
2021/09/01 07:58:01;;;;;;;12.10;9.97;;;;;;;14.55;79.04;96557.56;6130543;23;20509;-83
2021/09/01 08:00:26;;;;;;;10.97;9.80;;;;;;;14.71;79.45;96560.34;6157060;23;20144;-81
2021/09/01 08:02:52;;;;;;;14.17;9.40;;;;;;;14.61;78.87;96565.66;6153433;23;20164;-81
2021/09/01 08:05:19;;;;;;;11.53;10.07;;;;;;;14.75;78.52;96572.16;6131342;23;20755;-82
2021/09/01 08:07:45;;;;;;;11.37;10.13;;;;;;;14.61;77.73;96576.13;6155650;23;20549;-81
2021/09/01 08:10:10;;;;;;;11.87;9.93;;;;;;;14.70;78.98;96575.22;6181248;23;20238;-81
2021/09/01 08:12:36;;;;;;;11.87;9.67;;;;;;;14.88;79.08;96570.00;6131467;23;20155;-81
2021/09/01 08:15:01;;;;;;;12.07;9.67;;;;;;;14.89;77.83;96573.44;6181333;23;20183;-81
2021/09/01 08:17:26;;;;;;;12.23;10.20;;;;;;;15.17;77.10;96576.78;6157955;23;20159;-82
2021/09/01 08:19:52;;;;;;;12.57;9.87;;;;;;;15.29;78.45;96572.97;6154491;23;20238;-81
2021/09/01 08:22:17;;;;;;;10.83;9.73;;;;;;;15.26;77.77;96570.66;6155030;23;20170;-80
2021/09/01 08:24:43;;;;;;;12.43;9.83;;;;;;;15.44;76.80;96574.06;6181293;23;20151;-82
2021/09/01 08:27:11;;;;;;;19.03;12.10;;;;;;;15.26;75.45;96573.25;6178842;23;20155;-81
2021/09/01 08:29:37;;;;;;;12.10;9.70;;;;;;;15.24;75.82;96576.03;6126645;23;20183;-79
2021/09/01 08:32:03;;;;;;;14.53;9.07;;;;;;;15.40;75.88;96582.38;6175182;23;20487;-81
2021/09/01 08:34:28;;;;;;;12.47;8.70;;;;;;;15.54;74.87;96587.88;6175640;23;20213;-82
2021/09/01 08:36:54;;;;;;;10.30;9.10;;;;;;;15.43;74.97;96584.69;6176406;23;20166;-81
2021/09/01 08:39:19;;;;;;;10.17;9.07;;;;;;;15.35;74.44;96580.22;6175812;23;20199;-78
2021/09/01 08:41:46;;;;;;;10.23;9.10;;;;;;;15.38;75.33;96582.53;6151028;23;20209;-80
2021/09/01 08:44:12;;;;;;;12.73;9.83;;;;;;;15.61;75.54;96589.91;6177636;23;20210;-80
2021/09/01 08:46:38;;;;;;;12.07;8.90;;;;;;;15.57;73.45;96589.38;6105954;23;20163;-80
2021/09/01 08:49:04;;;;;;;11.03;9.23;;;;;;;15.47;72.86;96592.09;6155318;23;20175;-79
2021/09/01 08:51:30;;;;;;;11.57;9.60;;;;;;;15.42;74.53;96594.34;6128820;23;20525;-79
2021/09/01 08:53:56;;;;;;;11.73;9.70;;;;;;;15.54;74.25;96595.72;6130104;23;20187;-79
2021/09/01 08:56:23;;;;;;;11.23;9.83;;;;;;;15.61;74.17;96593.34;6130827;23;20529;-80
2021/09/01 08:58:48;;;;;;;12.53;9.83;;;;;;;15.88;72.55;96594.19;6155248;23;20683;-80
2021/09/01 09:01:49;;;;;;;10.03;8.83;;;;;;;15.90;72.77;96593.03;6180127;23;20156;-79
2021/09/01 09:04:29;;;;;;;11.13;8.63;;;;;;;15.91;72.64;96599.13;6130584;23;20606;-79
2021/09/01 09:06:59;;;;;;;9.95;8.95;;;;;;;15.85;71.96;96584.84;6154969;23;20155;-81
2021/09/01 09:09:28;;;;;;;14.15;9.10;;;;;;;16.23;71.02;96580.13;6154756;23;20179;-80
2021/09/01 09:11:55;;;;;;;11.07;8.45;;;;;;;16.30;71.10;96573.25;6104936;23;20598;-80
2021/09/01 09:14:31;;;;;;;11.60;7.93;;;;;;;16.27;68.96;96573.59;6105657;23;20653;-80
2021/09/01 09:17:14;;;;;;;11.13;8.25;;;;;;;16.54;69.39;96572.53;6155513;23;20205;-80
2021/09/01 09:19:47;;;;;;;9.50;7.95;;;;;;;16.93;69.20;96575.44;6157580;23;20636;-80
2021/09/01 09:22:34;;;;;;;8.07;7.28;;;;;;;17.16;66.07;96568.56;6154809;23;20163;-79
2021/09/01 09:25:08;;;;;;;10.38;7.28;;;;;;;17.25;65.48;96577.28;6157210;23;20156;-80
2021/09/01 09:27:46;;;;;;;8.88;7.10;;;;;;;17.37;65.99;96583.00;6155237;23;20242;-80
2021/09/01 09:30:21;;;;;;;10.02;7.65;;;;;;;16.84;66.64;96579.84;6156985;23;20483;-80
2021/09/01 09:33:01;;;;;;;10.25;7.88;;;;;;;16.93;66.43;96585.91;6153897;23;20166;-79
2021/09/01 09:35:45;;;;;;;8.30;7.50;;;;;;;17.13;66.55;96582.00;6106939;23;20148;-79
2021/09/01 09:38:10;;;;;;;9.65;8.25;;;;;;;16.99;66.68;96580.03;6181787;23;20171;-81
2021/09/01 09:40:35;;;;;;;11.48;7.53;;;;;;;17.03;66.59;96586.59;6158659;23;20629;-81
2021/09/01 09:43:18;;;;;;;10.32;8.00;;;;;;;16.84;66.65;96584.28;6155900;23;20609;-80
2021/09/01 09:45:45;;;;;;;10.25;7.55;;;;;;;16.91;66.98;96580.03;6133118;23;20158;-82
2021/09/01 09:48:11;;;;;;;11.20;7.15;;;;;;;16.95;66.53;96579.53;6136716;23;20198;-80
2021/09/01 09:50:36;;;;;;;10.20;7.35;;;;;;;16.76;66.19;96579.00;6160323;23;20178;-82
2021/09/01 09:53:03;;;;;;;8.35;6.60;;;;;;;16.96;67.68;96577.72;6111855;23;20194;-81
2021/09/01 09:55:28;;;;;;;10.50;6.50;;;;;;;17.05;63.30;96579.41;6138994;23;20219;-81
2021/09/01 09:57:55;;;;;;;8.70;5.38;;;;;;;17.19;60.69;96575.28;6161032;23;20175;-81
2021/09/01 10:00:23;;;;;;;7.13;5.93;;;;;;;17.41;60.60;96579.06;6185016;23;20160;-78
2021/09/01 10:02:48;;;;;;;7.55;5.10;;;;;;;17.26;60.72;96576.28;6109132;23;20496;-82
2021/09/01 10:05:16;;;;;;;8.90;5.90;;;;;;;17.52;60.68;96581.38;6182992;23;20247;-79
2021/09/01 10:07:42;;;;;;;8.32;5.88;;;;;;;17.67;61.08;96578.88;6158783;23;20152;-81
2021/09/01 10:10:11;;;;;;;7.53;5.10;;;;;;;17.43;58.29;96577.09;6181843;23;20163;-81
2021/09/01 10:12:40;;;;;;;6.15;4.78;;;;;;;17.25;58.23;96572.84;6108978;23;20155;-82
2021/09/01 10:15:12;;;;;;;5.72;5.10;;;;;;;17.56;58.99;96572.16;6182996;23;20179;-81
2021/09/01 10:17:40;;;;;;;7.28;5.25;;;;;;;17.38;58.71;96563.63;6109124;23;20598;-81
2021/09/01 10:20:08;;;;;;;6.28;5.22;;;;;;;17.57;56.89;96565.91;6135048;23;20158;-82
2021/09/01 10:22:33;;;;;;;5.53;5.03;;;;;;;17.68;57.45;96557.72;6108896;23;20544;-81
2021/09/01 10:24:58;;;;;;;8.20;5.80;;;;;;;17.69;57.24;96561.16;6157755;23;20161;-81
2021/09/01 10:27:25;;;;;;;8.45;5.38;;;;;;;17.87;55.09;96558.34;6158557;23;20255;-79
2021/09/01 10:30:00;;;;;;;6.10;5.50;;;;;;;17.90;53.86;96561.44;6157527;23;20187;-81
2021/09/01 10:32:33;;;;;;;6.15;5.13;;;;;;;18.24;55.52;96569.06;6183233;23;20162;-81
2021/09/01 10:35:21;;;;;;;6.93;5.07;;;;;;;18.23;54.69;96567.44;6161498;23;20183;-80
2021/09/01 10:37:53;;;;;;;5.32;4.75;;;;;;;18.03;52.70;96566.19;6157964;23;20221;-80
2021/09/01 10:40:21;;;;;;;6.38;5.03;;;;;;;18.17;48.82;96559.41;6137709;23;20522;-80
2021/09/01 10:43:00;;;;;;;5.18;4.32;;;;;;;18.43;51.29;96561.75;6163089;23;20182;-80
2021/09/01 10:45:32;;;;;;;5.22;4.72;;;;;;;18.40;50.50;96563.75;6160608;23;20578;-80
2021/09/01 10:48:09;;;;;;;5.85;4.88;;;;;;;18.57;50.60;96556.59;6162743;23;20514;-79
2021/09/01 10:50:39;;;;;;;7.47;4.68;;;;;;;18.70;51.66;96558.69;6183384;23;20171;-80
2021/09/01 10:53:24;;;;;;;5.63;4.68;;;;;;;18.87;51.90;96562.03;6177428;23;20602;-82
2021/09/01 10:56:04;;;;;;;6.18;5.50;;;;;;;18.81;52.98;96562.72;6179476;23;20207;-81
2021/09/01 10:58:40;;;;;;;7.45;4.78;;;;;;;18.94;51.90;96558.53;6158263;23;20182;-80
2021/09/01 11:01:07;;;;;;;6.10;5.50;;;;;;;19.05;51.00;96567.00;6136346;23;20146;-79
2021/09/01 11:03:37;;;;;;;7.47;5.18;;;;;;;18.50;50.09;96566.16;6160395;23;20146;-79
2021/09/01 11:06:14;;;;;;;6.18;5.10;;;;;;;17.93;52.90;96573.44;6136892;23;20139;-82
2021/09/01 11:09:14;;;;;;;6.03;5.40;;;;;;;17.78;54.87;96574.13;6195072;23;20170;-78
2021/09/01 11:11:52;;;;;;;7.55;5.25;;;;;;;17.96;52.27;96566.03;6189988;23;20162;-80
2021/09/01 11:14:31;;;;;;;5.93;4.57;;;;;;;18.43;53.50;96569.66;6138090;23;20179;-79
2021/09/01 11:17:00;;;;;;;6.20;5.03;;;;;;;18.71;50.97;96570.84;6180984;23;20155;-77
2021/09/01 11:19:27;;;;;;;5.18;4.70;;;;;;;18.90;49.12;96577.47;6156939;23;20269;-78
2021/09/01 11:21:52;;;;;;;5.65;5.15;;;;;;;19.00;51.47;96574.63;6178274;23;20151;-77
2021/09/01 11:24:19;;;;;;;6.35;4.57;;;;;;;19.26;49.82;96575.09;6131839;23;20209;-80